Hlavní strana
METAR-TAF:

METAR-TAF

Letiště :

Mezinárodní letiště Soči

Soči, Rusko

zeměpisná šířka: 43-26N, zeměpisná délka: 039-54E, výška: 16 m

Aktuální stav počasí

Zpráva byla vytvořena před 14 minutami, v 04:00 UTC
Severovýchodní vítr 10 kt
Teplota 7°C
Vlhkost vzduchu 61%
Tlak 1022 hPa
Viditelnost 10 km a více

METAR: URSS 180400Z 05005MPS 9999 NSC 07/M00 Q1022 R02/010070 R06/010070 NOSIG RMK R06/00000MPS QFE765

Čas: 08:14 (04:14 UTC)

Předpověď počasí

Zpráva byla vytvořena před 2 hodinami a 18 minutami, v 01:56 UTC
Předpověď platná od 18 v 03 UTC do 19 v 03 UTC
Severovýchodní vítr 12 kt
Viditelnost 10 km a více
Změna
od 18 v 08 UTC do 18 v 09 UTC
Západojihozápadní vítr 10 kt
Změna
od 18 v 14 UTC do 18 v 15 UTC
Severovýchodní vítr 14 kt

TAF: URSS 180156Z 1803/1903 05006MPS 9999 NSC BECMG 1808/1809 24005MPS BECMG 1814/1815 05007MPS

Stav a předpovědi počasí z více než 4 000 letišť (zprávy METAR a TAF).

Červené a žluté tečky na mapě představují dostupné meteorologické stanice.

Když kurzor umístíte na tečku, zobrazí se název stanice.

Pak kliknutím zobrazíte stav a předpověď počasí.

Chcete-li změnit mapu, kliknutím na zelené tlačítko se znaménkem +mapu přiblížíte, kliknutím na zelené tlačítko se znaménkem – mapu oddálíte a kliknutím na zelené šipky přejdete na sousední mapy.


METAR-TAF: